METAR Data
IDs: Format: Raw Decoded Include TAF

Data at: 0550 UTC 14 Dec 2018

METAR for:MSSS (Ilopango Arpt, --, ES)
Text:MSSS 140450Z 34003KT CAVOK 22/18 Q1017 A3004
Temperature: 22.0°C ( 72°F)
Dewpoint: 18.0°C ( 64°F) [RH = 78%]
Pressure (altimeter):30.03 inches Hg (1017.0 mb)
Winds:from the NNW (340 degrees) at 3 MPH (3 knots; 1.5 m/s)
Visibility:6 or more sm (10+ km)
Ceiling:ceiling and visibility are OK
Clouds:unknown

TAF for:MSSS (Ilopango Arpt, --, ES) issued at 0325 UTC 14 Dec 2018
Text:TAF MSSS 140325Z 1406/1506 35003KT 9999 FEW050 TX29/1418Z TN18/1412Z
Forecast period:0600 to 1800 UTC 14 December 2018
Forecast type:FROM: standard forecast or significant change
Winds:from the N (350 degrees) at 3 MPH (3 knots; 1.5 m/s)
Visibility:6 or more sm (10+ km)
Ceiling:at least 12,000 feet AGL
Clouds: few clouds at 5000 feet AGL
Text:FM141800 17008KT 9999 SCT043
Forecast period:1800 UTC 14 December 2018 to 0600 UTC 15 December 2018
Forecast type:FROM: standard forecast or significant change
Winds:from the S (170 degrees) at 9 MPH (8 knots; 4.1 m/s)
Visibility:6 or more sm (10+ km)
Ceiling:at least 12,000 feet AGL
Clouds: scattered clouds at 4300 feet AGL